Time;durP1;ratioP1;P1;durP2;ratioP2;P2;SDS_P1;SDS_P2;PMS_P1;PMS_P2;Temp;Humidity;BMP_temperature;BMP_pressure;BME280_temperature;BME280_humidity;BME280_pressure;Samples;Min_cycle;Max_cycle;Signal;HPM_P1;HPM_P2
2021/12/15 00:01:50;;;;;;;36.43;20.13;;;7.20;99.90;;;;;;5027358;28;20517;-69
2021/12/15 00:04:16;;;;;;;45.20;22.60;;;7.20;99.90;;;;;;5026526;28;20456;-71
2021/12/15 00:06:42;;;;;;;46.57;23.50;;;7.30;99.90;;;;;;5030890;28;20413;-70
2021/12/15 00:09:11;;;;;;;50.03;22.87;;;7.30;99.90;;;;;;5030401;28;20162;-70
2021/12/15 00:11:37;;;;;;;52.80;23.70;;;7.30;99.90;;;;;;5029902;28;20185;-70
2021/12/15 00:14:05;;;;;;;48.53;21.00;;;7.20;99.90;;;;;;5031363;28;20431;-70
2021/12/15 00:16:31;;;;;;;43.30;22.87;;;7.20;99.90;;;;;;5031092;28;20450;-70
2021/12/15 00:18:56;;;;;;;65.13;27.97;;;7.20;99.90;;;;;;5030989;28;20431;-69
2021/12/15 00:21:22;;;;;;;48.17;24.77;;;;;;;;;;5027187;28;20626;-69
2021/12/15 00:23:49;;;;;;;51.17;24.73;;;7.20;99.90;;;;;;5037820;28;20689;-69
2021/12/15 00:26:15;;;;;;;59.30;24.97;;;7.10;99.90;;;;;;5051109;28;20410;-69
2021/12/15 00:28:43;;;;;;;53.47;24.13;;;7.10;99.90;;;;;;5049893;28;20873;-70
2021/12/15 00:31:08;;;;;;;54.80;23.20;;;7.20;99.90;;;;;;5030027;28;20486;-69
2021/12/15 00:33:35;;;;;;;54.90;22.53;;;7.20;99.90;;;;;;5012561;28;20417;-70
2021/12/15 00:36:02;;;;;;;48.83;23.30;;;7.20;99.90;;;;;;5042178;28;20554;-70
2021/12/15 00:38:28;;;;;;;56.17;23.00;;;7.20;99.90;;;;;;5010837;28;21008;-68
2021/12/15 00:40:53;;;;;;;56.13;23.90;;;7.30;99.90;;;;;;5010720;28;20425;-69
2021/12/15 00:43:19;;;;;;;53.67;23.70;;;7.40;99.90;;;;;;5011652;28;20213;-69
2021/12/15 00:45:46;;;;;;;41.40;21.83;;;7.30;99.90;;;;;;5011088;28;20181;-69
2021/12/15 00:48:12;;;;;;;58.70;23.53;;;7.30;99.90;;;;;;5018567;28;20264;-70
2021/12/15 00:50:38;;;;;;;50.33;22.60;;;7.30;99.90;;;;;;5032246;28;20428;-69
2021/12/15 00:53:05;;;;;;;57.97;22.30;;;7.30;99.90;;;;;;5040099;28;20427;-70
2021/12/15 00:55:31;;;;;;;61.23;23.33;;;7.30;99.90;;;;;;5051144;28;20411;-71
2021/12/15 00:57:59;;;;;;;57.60;23.50;;;7.20;99.90;;;;;;5048946;28;20415;-70
2021/12/15 01:00:31;;;;;;;51.40;22.17;;;7.20;99.90;;;;;;5049552;28;20440;-70
2021/12/15 01:02:57;;;;;;;51.40;23.60;;;7.20;99.90;;;;;;5036154;28;20460;-70
2021/12/15 01:05:29;;;;;;;49.90;22.37;;;7.30;99.90;;;;;;5028707;28;20404;-70
2021/12/15 01:07:55;;;;;;;52.03;21.77;;;7.10;99.90;;;;;;5029420;28;20401;-70
2021/12/15 01:10:30;;;;;;;54.20;23.70;;;7.40;99.90;;;;;;5028566;28;21187;-70
2021/12/15 01:21:03;;;;;;;64.37;23.57;;;7.20;99.90;;;;;;5035586;28;21012;-71
2021/12/15 01:23:30;;;;;;;62.70;23.57;;;7.20;99.90;;;;;;5041363;28;20451;-70
2021/12/15 01:26:12;;;;;;;51.43;23.70;;;7.20;99.90;;;;;;5049081;28;20873;-70
2021/12/15 01:28:38;;;;;;;49.90;22.50;;;7.20;99.90;;;;;;5026060;28;20425;-70
2021/12/15 01:31:06;;;;;;;48.17;22.17;;;7.20;99.90;;;;;;5026629;28;20565;-70
2021/12/15 01:33:33;;;;;;;45.30;22.40;;;7.30;99.90;;;;;;5025737;28;20427;-70
2021/12/15 01:36:00;;;;;;;51.33;22.43;;;7.30;99.90;;;;;;5028791;28;20918;-73
2021/12/15 01:38:30;;;;;;;50.70;22.50;;;7.20;99.90;;;;;;5028686;28;20423;-71
2021/12/15 01:40:58;;;;;;;49.60;21.40;;;7.20;99.90;;;;;;5028880;28;20535;-71
2021/12/15 01:43:49;;;;;;;44.80;21.33;;;7.20;99.90;;;;;;5017081;28;20465;-71
2021/12/15 01:49:17;;;;;;;54.20;22.83;;;7.20;99.90;;;;;;5009939;28;20405;-71
2021/12/15 01:51:43;;;;;;;53.83;23.00;;;7.20;99.90;;;;;;5028318;28;20515;-71
2021/12/15 01:54:10;;;;;;;45.43;21.33;;;7.20;99.90;;;;;;5028104;28;20455;-70
2021/12/15 01:56:36;;;;;;;54.90;20.20;;;7.20;99.90;;;;;;5025482;28;20447;-71
2021/12/15 01:59:03;;;;;;;48.80;19.67;;;7.30;99.90;;;;;;5027128;28;20416;-69
2021/12/15 02:01:29;;;;;;;52.07;22.40;;;7.30;99.90;;;;;;5029332;28;20417;-70
2021/12/15 02:03:55;;;;;;;53.30;22.23;;;7.30;99.90;;;;;;5013531;28;20987;-69
2021/12/15 02:06:21;;;;;;;52.60;22.80;;;7.30;99.90;;;;;;5009019;28;20174;-69
2021/12/15 02:08:48;;;;;;;49.53;22.33;;;7.30;99.90;;;;;;5009983;28;20460;-69
2021/12/15 02:11:14;;;;;;;52.50;21.67;;;7.30;99.90;;;;;;5009218;28;20564;-69
2021/12/15 02:13:40;;;;;;;58.50;24.73;;;7.30;99.90;;;;;;5010200;28;20416;-69
2021/12/15 02:16:07;;;;;;;44.00;22.00;;;7.20;99.90;;;;;;5009197;28;20838;-71
2021/12/15 02:18:37;;;;;;;58.73;23.87;;;7.10;99.90;;;;;;5040684;28;20171;-70
2021/12/15 02:21:09;;;;;;;46.17;21.73;;;7.10;99.90;;;;;;5022046;28;20774;-70
2021/12/15 02:23:42;;;;;;;55.70;23.37;;;7.10;99.90;;;;;;5040899;28;20498;-69
2021/12/15 02:26:23;;;;;;;51.07;22.57;;;7.00;99.90;;;;;;5048802;28;20431;-68
2021/12/15 02:28:54;;;;;;;49.87;22.40;;;7.00;99.90;;;;;;5048366;28;20490;-69
2021/12/15 02:32:16;;;;;;;53.90;23.03;;;7.00;99.90;;;;;;5024379;28;20867;-69
2021/12/15 02:39:45;;;;;;;49.17;22.30;;;7.10;99.90;;;;;;5029287;28;20511;-69
2021/12/15 02:42:10;;;;;;;57.47;22.63;;;7.10;99.90;;;;;;5026422;28;20950;-69
2021/12/15 02:44:41;;;;;;;51.73;22.80;;;7.10;99.90;;;;;;5027600;28;20510;-69
2021/12/15 02:47:08;;;;;;;62.23;24.00;;;7.00;99.90;;;;;;5026347;28;20287;-69
2021/12/15 02:49:34;;;;;;;48.90;23.13;;;6.90;99.90;;;;;;5027810;28;20428;-69
2021/12/15 02:52:00;;;;;;;53.17;22.33;;;6.90;99.90;;;;;;5033269;28;20430;-71
2021/12/15 02:54:27;;;;;;;65.67;22.77;;;6.90;99.90;;;;;;5029542;28;20173;-70
2021/12/15 02:56:53;;;;;;;55.97;23.00;;;6.90;99.90;;;;;;5028312;28;20458;-69
2021/12/15 02:59:31;;;;;;;54.30;23.13;;;6.80;99.90;;;;;;5027228;28;20542;-70
2021/12/15 03:04:54;;;;;;;53.17;20.97;;;6.80;99.90;;;;;;5017376;28;20534;-69
2021/12/15 03:07:35;;;;;;;48.73;21.07;;;6.80;99.90;;;;;;5026412;28;20416;-69
2021/12/15 03:15:31;;;;;;;48.83;22.73;;;6.70;99.90;;;;;;5027782;28;20463;-70
2021/12/15 03:18:11;;;;;;;42.10;21.67;;;6.70;99.90;;;;;;5028192;28;20528;-70
2021/12/15 03:20:51;;;;;;;46.13;20.33;;;6.80;99.90;;;;;;5029167;28;20444;-69
2021/12/15 03:23:25;;;;;;;42.13;19.90;;;6.80;99.90;;;;;;5037964;28;20451;-69
2021/12/15 03:25:51;;;;;;;49.07;19.77;;;6.80;99.90;;;;;;5046454;28;20511;-69
2021/12/15 03:34:12;;;;;;;45.87;19.40;;;6.60;99.90;;;;;;5028094;28;20447;-69
2021/12/15 03:39:29;;;;;;;46.53;19.73;;;6.20;99.90;;;;;;5008639;28;20488;-69
2021/12/15 03:42:00;;;;;;;41.83;19.73;;;6.20;99.90;;;;;;5007924;28;20453;-70
2021/12/15 03:44:27;;;;;;;44.90;19.43;;;6.10;99.90;;;;;;5014779;28;20469;-69
2021/12/15 03:46:53;;;;;;;49.03;20.10;;;6.00;99.90;;;;;;5026098;28;20934;-70
2021/12/15 03:49:19;;;;;;;48.50;20.63;;;6.10;99.90;;;;;;5009311;28;20434;-69
2021/12/15 03:51:44;;;;;;;42.77;19.73;;;6.10;99.90;;;;;;5011323;28;20184;-70
2021/12/15 03:54:10;;;;;;;48.13;20.20;;;6.10;99.90;;;;;;5027499;28;20678;-70
2021/12/15 03:56:39;;;;;;;42.70;19.83;;;6.10;99.90;;;;;;5025617;28;20178;-69
2021/12/15 03:59:07;;;;;;;44.30;20.23;;;6.10;99.90;;;;;;5022272;28;20533;-70
2021/12/15 04:01:33;;;;;;;46.33;19.83;;;6.00;99.90;;;;;;5026771;28;20415;-69
2021/12/15 04:04:01;;;;;;;37.93;19.50;;;6.00;99.90;;;;;;5024650;28;20448;-70
2021/12/15 04:06:30;;;;;;;37.43;18.93;;;6.00;99.90;;;;;;5023809;28;20621;-70
2021/12/15 04:08:57;;;;;;;39.30;18.70;;;5.90;99.90;;;;;;5026732;28;20743;-71
2021/12/15 04:11:26;;;;;;;46.67;20.63;;;5.90;99.90;;;;;;5025247;28;20433;-70
2021/12/15 04:13:52;;;;;;;42.33;19.10;;;5.90;99.90;;;;;;5031332;28;20931;-70
2021/12/15 04:18:59;;;;;;;36.20;17.87;;;6.10;99.90;;;;;;5046785;28;20797;-71
2021/12/15 04:21:25;;;;;;;37.87;17.47;;;6.10;99.90;;;;;;5046136;28;20426;-70
2021/12/15 04:23:54;;;;;;;35.37;17.13;;;6.10;99.90;;;;;;5037360;28;20460;-70
2021/12/15 04:26:20;;;;;;;38.70;17.60;;;6.00;99.90;;;;;;5025373;28;20425;-70
2021/12/15 04:28:46;;;;;;;37.13;17.80;;;6.00;99.90;;;;;;5027213;28;20408;-71
2021/12/15 04:31:16;;;;;;;39.60;17.20;;;5.90;99.90;;;;;;5024835;28;21323;-70
2021/12/15 04:33:48;;;;;;;41.83;18.13;;;5.90;99.90;;;;;;5025186;28;20478;-70
2021/12/15 04:36:14;;;;;;;38.23;18.30;;;5.90;99.90;;;;;;5024856;28;20448;-70
2021/12/15 04:38:41;;;;;;;38.77;19.10;;;5.90;99.90;;;;;;5026926;28;20471;-70
2021/12/15 04:41:11;;;;;;;42.97;18.60;;;5.90;99.90;;;;;;5025986;28;20447;-70
2021/12/15 04:43:40;;;;;;;39.90;18.77;;;6.00;99.90;;;;;;5025707;28;20577;-70
2021/12/15 04:46:09;;;;;;;40.67;18.10;;;6.00;99.90;;;;;;5038420;28;20404;-70
2021/12/15 04:48:36;;;;;;;41.80;18.80;;;6.00;99.90;;;;;;5046674;28;20408;-71
2021/12/15 04:51:03;;;;;;;41.07;18.80;;;5.90;99.90;;;;;;5037494;28;20519;-69
2021/12/15 04:53:29;;;;;;;41.27;19.50;;;5.90;99.90;;;;;;5024016;28;20955;-70
2021/12/15 04:55:55;;;;;;;40.60;18.87;;;5.90;99.90;;;;;;5009035;28;20516;-70
2021/12/15 04:58:20;;;;;;;37.70;17.93;;;5.90;99.90;;;;;;5010563;28;20214;-70
2021/12/15 05:00:53;;;;;;;39.07;19.00;;;5.90;99.90;;;;;;5010578;28;20239;-70
2021/12/15 05:03:18;;;;;;;48.00;19.90;;;5.90;99.90;;;;;;5045045;28;20220;-70
2021/12/15 05:05:44;;;;;;;44.30;19.40;;;5.90;99.90;;;;;;5021411;28;20932;-70
2021/12/15 05:08:10;;;;;;;42.80;18.70;;;5.70;99.90;;;;;;5010424;28;20312;-70
2021/12/15 05:10:37;;;;;;;43.90;20.17;;;5.80;99.90;;;;;;5010394;28;20232;-70
2021/12/15 05:13:04;;;;;;;43.10;19.10;;;5.80;99.90;;;;;;5015112;28;20201;-70
2021/12/15 05:15:30;;;;;;;41.57;18.37;;;5.80;99.90;;;;;;5029728;28;20524;-71
2021/12/15 05:17:56;;;;;;;35.30;18.90;;;5.90;99.90;;;;;;5049001;28;20411;-71
2021/12/15 05:20:23;;;;;;;39.43;18.30;;;5.90;99.90;;;;;;5048825;28;20450;-71
2021/12/15 05:22:49;;;;;;;44.03;21.17;;;6.00;99.90;;;;;;5050180;28;20200;-70
2021/12/15 05:25:15;;;;;;;43.80;19.30;;;5.90;99.90;;;;;;5028178;28;20432;-70
2021/12/15 05:27:41;;;;;;;37.00;17.27;;;5.90;99.90;;;;;;5030235;28;20401;-70
2021/12/15 05:30:11;;;;;;;37.47;18.40;;;5.90;99.90;;;;;;5030087;28;20316;-70
2021/12/15 05:32:37;;;;;;;33.40;16.50;;;5.90;99.90;;;;;;5028358;28;20989;-70
2021/12/15 05:35:03;;;;;;;39.03;17.77;;;5.90;99.90;;;;;;5027357;28;20936;-69
2021/12/15 05:37:29;;;;;;;35.70;17.80;;;6.00;99.90;;;;;;5010066;28;20419;-70
2021/12/15 05:39:57;;;;;;;39.00;17.50;;;6.10;99.90;;;;;;5041098;28;20441;-69
2021/12/15 05:42:24;;;;;;;41.70;17.60;;;6.00;99.90;;;;;;5044474;28;20456;-70
2021/12/15 05:44:50;;;;;;;38.43;17.13;;;6.00;99.90;;;;;;5038140;28;20431;-71
2021/12/15 05:47:16;;;;;;;34.10;17.13;;;6.00;99.90;;;;;;5045245;28;20419;-70
2021/12/15 05:49:42;;;;;;;38.20;18.27;;;5.90;99.90;;;;;;5049170;28;20801;-70
2021/12/15 05:52:08;;;;;;;41.53;19.03;;;5.90;99.90;;;;;;5037906;28;20416;-70
2021/12/15 05:54:34;;;;;;;37.57;18.37;;;6.00;99.90;;;;;;5028088;28;20174;-70
2021/12/15 05:57:00;;;;;;;40.47;18.77;;;6.00;99.90;;;;;;5029312;28;20416;-69
2021/12/15 05:59:26;;;;;;;45.10;19.43;;;;;;;;;;5029041;28;20444;-70
2021/12/15 06:01:52;;;;;;;39.07;19.47;;;6.00;99.90;;;;;;5029757;28;20782;-70
2021/12/15 06:04:18;;;;;;;37.30;18.00;;;6.00;99.90;;;;;;5028625;28;20563;-70
2021/12/15 06:06:44;;;;;;;40.63;17.80;;;6.10;99.90;;;;;;5028892;28;20174;-70
2021/12/15 06:09:12;;;;;;;37.60;17.40;;;6.10;99.90;;;;;;5013464;28;20516;-70
2021/12/15 06:11:39;;;;;;;39.57;18.20;;;6.10;99.90;;;;;;5008442;28;20409;-70
2021/12/15 06:14:05;;;;;;;41.90;18.60;;;6.10;99.90;;;;;;5024643;28;20436;-70
2021/12/15 06:16:31;;;;;;;40.40;17.90;;;6.10;99.90;;;;;;5040281;28;20415;-70
2021/12/15 06:18:57;;;;;;;32.60;16.83;;;6.50;99.90;;;;;;5048906;28;20906;-70
2021/12/15 06:21:23;;;;;;;34.10;17.00;;;6.20;99.90;;;;;;5046353;28;20486;-70
2021/12/15 06:23:49;;;;;;;40.03;17.60;;;6.20;99.90;;;;;;5037386;28;20829;-69
2021/12/15 06:26:16;;;;;;;36.27;18.30;;;6.20;99.90;;;;;;5027597;28;20416;-70
2021/12/15 06:28:43;;;;;;;38.40;18.47;;;6.30;99.90;;;;;;5027638;28;20174;-71
2021/12/15 06:31:13;;;;;;;37.73;19.43;;;6.30;99.90;;;;;;5026949;28;20443;-70
2021/12/15 06:33:40;;;;;;;40.20;20.83;;;6.30;99.90;;;;;;5027231;28;20482;-71
2021/12/15 06:36:07;;;;;;;48.50;23.00;;;6.30;99.90;;;;;;5025594;28;20849;-69
2021/12/15 06:38:36;;;;;;;43.83;22.50;;;6.30;99.90;;;;;;5028829;28;20536;-71
2021/12/15 06:41:05;;;;;;;50.47;22.77;;;6.30;99.90;;;;;;5026451;28;20448;-70
2021/12/15 06:43:31;;;;;;;49.10;22.77;;;6.50;99.90;;;;;;5013702;28;21021;-70
2021/12/15 15:56:30;;;;;;;28.00;16.23;;;7.90;99.90;;;;;;5080237;28;20555;-71
2021/12/15 15:58:59;;;;;;;37.07;15.40;;;7.90;99.90;;;;;;5077885;28;20421;-71
2021/12/15 16:01:26;;;;;;;26.23;15.50;;;8.00;99.90;;;;;;5085025;28;20444;-71
2021/12/15 16:03:55;;;;;;;28.00;15.23;;;8.20;99.90;;;;;;5075290;28;20425;-71
2021/12/15 16:06:22;;;;;;;27.03;15.70;;;8.40;99.90;;;;;;5062751;28;20427;-71
2021/12/15 16:08:49;;;;;;;28.00;17.00;;;8.60;99.90;;;;;;5063192;28;20459;-71
2021/12/15 16:11:22;;;;;;;31.77;16.40;;;8.70;99.90;;;;;;5062117;28;21845;-71
2021/12/15 16:14:01;;;;;;;31.13;17.50;;;8.80;99.90;;;;;;5062099;28;20427;-72
2021/12/15 16:16:36;;;;;;;37.97;21.80;;;8.90;99.90;;;;;;5080259;28;20823;-71
2021/12/15 16:19:11;;;;;;;39.23;22.27;;;;;;;;;;5062771;28;20499;-72
2021/12/15 16:24:12;;;;;;;26.70;15.27;;;9.20;99.90;;;;;;5064494;28;20427;-71
2021/12/15 16:26:38;;;;;;;30.27;14.17;;;9.10;99.90;;;;;;5065547;28;20450;-71
2021/12/15 16:29:13;;;;;;;24.90;11.03;;;9.00;99.90;;;;;;5064936;28;20451;-71
2021/12/15 16:31:41;;;;;;;19.90;11.37;;;9.10;99.90;;;;;;5063932;28;20242;-72
2021/12/15 16:34:08;;;;;;;21.47;12.00;;;9.00;99.90;;;;;;5064452;28;20415;-71
2021/12/15 16:36:37;;;;;;;15.60;10.70;;;9.10;99.90;;;;;;5063436;28;20846;-71
2021/12/15 16:39:07;;;;;;;19.70;11.77;;;9.10;99.90;;;;;;5064643;28;20407;-71
2021/12/15 16:41:36;;;;;;;19.40;12.13;;;9.10;99.90;;;;;;5064267;28;20426;-71
2021/12/15 16:44:10;;;;;;;22.17;12.00;;;9.20;99.90;;;;;;5063334;28;20422;-72
2021/12/15 16:46:43;;;;;;;23.10;12.47;;;9.20;99.90;;;;;;5077613;28;20453;-70
2021/12/15 16:49:22;;;;;;;22.30;11.17;;;9.20;99.90;;;;;;5061413;28;20563;-71
2021/12/15 16:52:16;;;;;;;21.63;12.53;;;9.20;99.90;;;;;;5064252;28;20510;-70
2021/12/15 16:55:07;;;;;;;23.97;12.30;;;9.20;99.90;;;;;;5059519;28;20537;-71
2021/12/15 16:57:35;;;;;;;19.93;11.77;;;9.20;99.90;;;;;;5060664;28;20903;-71
2021/12/15 17:00:16;;;;;;;22.10;11.33;;;9.20;99.90;;;;;;5064434;28;20761;-70
2021/12/15 17:02:46;;;;;;;21.83;13.47;;;9.20;99.90;;;;;;5055650;28;20437;-71
2021/12/15 17:05:25;;;;;;;26.60;14.80;;;9.20;99.90;;;;;;5062633;28;20789;-71
2021/12/15 17:07:53;;;;;;;18.97;11.30;;;9.20;99.90;;;;;;5042404;28;20423;-70
2021/12/15 17:10:24;;;;;;;17.90;10.63;;;9.20;99.90;;;;;;5051146;28;20518;-71
2021/12/15 17:12:58;;;;;;;22.23;12.17;;;9.20;99.90;;;;;;5045108;28;20427;-71
2021/12/15 17:15:38;;;;;;;16.87;10.60;;;9.10;99.90;;;;;;5049697;28;20458;-71
2021/12/15 17:18:39;;;;;;;15.27;9.27;;;9.10;99.90;;;;;;5051004;28;20435;-73
2021/12/15 17:21:18;;;;;;;14.30;9.90;;;9.10;99.90;;;;;;5048617;28;20451;-71
2021/12/15 17:23:53;;;;;;;30.03;18.57;;;9.10;99.90;;;;;;5049215;28;20518;-71
2021/12/15 17:26:25;;;;;;;25.13;16.53;;;9.10;99.90;;;;;;5047449;28;20484;-72
2021/12/15 17:28:56;;;;;;;15.87;10.20;;;9.20;99.90;;;;;;5048825;28;20445;-71
2021/12/15 17:31:31;;;;;;;13.83;8.60;;;9.20;99.90;;;;;;5048691;28;20540;-71
2021/12/15 17:34:07;;;;;;;17.70;8.77;;;9.20;99.90;;;;;;5048431;28;20420;-71
2021/12/15 17:36:32;;;;;;;13.43;8.50;;;9.10;99.90;;;;;;5047875;28;20431;-70
2021/12/15 17:39:24;;;;;;;11.07;7.60;;;9.00;99.90;;;;;;5050072;28;20759;-70
2021/12/15 17:42:06;;;;;;;13.30;9.10;;;9.00;99.90;;;;;;5050488;28;20208;-70
2021/12/15 17:44:34;;;;;;;11.73;7.63;;;9.00;99.90;;;;;;5046121;28;20485;-71
2021/12/15 17:47:05;;;;;;;17.80;8.07;;;8.90;99.90;;;;;;5058695;28;20431;-71
2021/12/15 17:49:39;;;;;;;12.07;8.43;;;8.90;99.90;;;;;;5048523;28;20981;-70
2021/12/15 17:52:29;;;;;;;13.40;7.90;;;8.90;99.90;;;;;;5050365;28;20615;-71
2021/12/15 17:55:16;;;;;;;13.97;8.33;;;8.90;99.90;;;;;;5042649;28;20989;-71
2021/12/15 17:57:53;;;;;;;15.50;8.00;;;8.90;99.90;;;;;;5045156;28;20543;-70
2021/12/15 18:00:30;;;;;;;14.75;8.30;;;9.00;99.90;;;;;;5047388;28;20420;-71
2021/12/15 18:02:57;;;;;;;166.07;32.83;;;9.20;99.90;;;;;;5049806;28;20176;-71
2021/12/15 18:05:25;;;;;;;105.13;28.80;;;9.20;99.90;;;;;;5048436;28;20426;-71
2021/12/15 18:07:51;;;;;;;32.90;12.07;;;9.60;99.90;;;;;;5044121;28;20626;-69
2021/12/15 18:10:28;;;;;;;31.53;15.37;;;10.30;99.90;;;;;;5048217;28;20509;-71
2021/12/15 18:12:54;;;;;;;23.13;11.60;;;10.30;99.90;;;;;;5044827;28;20941;-71
2021/12/15 18:15:20;;;;;;;15.80;10.03;;;10.00;99.90;;;;;;5048595;28;20470;-71
2021/12/15 18:17:46;;;;;;;15.07;10.23;;;9.70;99.90;;;;;;5047403;28;20185;-71
2021/12/15 18:20:13;;;;;;;13.17;8.73;;;9.40;99.90;;;;;;5047552;28;20443;-73
2021/12/15 18:22:39;;;;;;;13.17;9.10;;;9.30;99.90;;;;;;5040229;28;20181;-69
2021/12/15 18:25:06;;;;;;;13.10;9.40;;;9.30;99.90;;;;;;5039723;28;20439;-71
2021/12/15 18:27:32;;;;;;;14.20;9.10;;;9.20;99.90;;;;;;5052182;28;20213;-73
2021/12/15 18:29:58;;;;;;;15.50;9.67;;;9.10;99.90;;;;;;5053129;28;20808;-71
2021/12/15 18:32:24;;;;;;;11.90;8.73;;;9.00;99.90;;;;;;5048859;28;20423;-71
2021/12/15 18:34:52;;;;;;;12.90;8.60;;;8.80;99.90;;;;;;5046379;28;20740;-72
2021/12/15 18:37:22;;;;;;;12.20;8.23;;;8.90;99.90;;;;;;5048938;28;20489;-70
2021/12/15 18:39:49;;;;;;;11.87;8.30;;;8.90;99.90;;;;;;5044282;28;20442;-74
2021/12/15 18:42:20;;;;;;;18.53;10.63;;;8.90;99.90;;;;;;5047545;28;20836;-72
2021/12/15 18:44:47;;;;;;;12.40;9.17;;;11.80;99.90;;;;;;5045890;28;20751;-71
2021/12/15 18:47:14;;;;;;;15.70;10.40;;;8.90;99.90;;;;;;5047047;28;20426;-73
2021/12/15 18:49:42;;;;;;;12.23;7.97;;;10.70;99.90;;;;;;5044193;28;20455;-72
2021/12/15 18:52:14;;;;;;;10.37;7.10;;;8.80;99.90;;;;;;5048806;28;20510;-71
2021/12/15 18:54:40;;;;;;;10.37;7.43;;;8.80;99.90;;;;;;5045204;28;20551;-73
2021/12/15 18:57:09;;;;;;;11.17;7.73;;;8.70;99.90;;;;;;5052591;28;21005;-72
2021/12/15 18:59:37;;;;;;;12.37;8.10;;;8.70;99.90;;;;;;5054874;28;20450;-71
2021/12/15 19:02:06;;;;;;;10.10;7.37;;;8.80;99.90;;;;;;5046100;28;20767;-70
2021/12/15 19:04:34;;;;;;;10.80;7.57;;;8.80;99.90;;;;;;5015119;28;20504;-72
2021/12/15 19:07:01;;;;;;;12.73;8.10;;;8.70;99.90;;;;;;5028150;28;20566;-72
2021/12/15 19:09:30;;;;;;;11.80;7.90;;;8.70;99.90;;;;;;5041541;28;20448;-71
2021/12/15 19:11:57;;;;;;;16.73;11.60;;;8.70;99.90;;;;;;5048367;28;20989;-71
2021/12/15 19:14:25;;;;;;;11.70;7.90;;;8.70;99.90;;;;;;5047501;28;20418;-74
2021/12/15 19:16:52;;;;;;;11.63;7.97;;;8.70;99.90;;;;;;5048248;28;20546;-73
2021/12/15 19:19:22;;;;;;;11.43;7.67;;;8.60;99.90;;;;;;5047224;28;20510;-71
2021/12/15 19:21:48;;;;;;;12.13;8.03;;;8.60;99.90;;;;;;5048422;28;20458;-72
2021/12/15 19:24:14;;;;;;;11.40;7.90;;;8.60;99.90;;;;;;5046921;28;20756;-75
2021/12/15 19:26:40;;;;;;;13.30;8.57;;;8.70;99.90;;;;;;5044320;28;20482;-75
2021/12/15 19:29:08;;;;;;;12.93;9.33;;;8.80;99.90;;;;;;5055292;28;20770;-71
2021/12/15 19:31:36;;;;;;;12.67;8.90;;;8.80;99.90;;;;;;5047850;28;20798;-71
2021/12/15 19:34:03;;;;;;;10.70;7.70;;;8.70;99.90;;;;;;5048570;28;20436;-71
2021/12/15 19:36:31;;;;;;;10.80;7.80;;;8.70;99.90;;;;;;5047674;28;20479;-71
2021/12/15 19:38:59;;;;;;;13.33;7.83;;;8.70;99.90;;;;;;5048190;28;20506;-71
2021/12/15 19:41:29;;;;;;;10.83;7.73;;;8.70;99.90;;;;;;5048086;28;20442;-71
2021/12/15 19:43:55;;;;;;;12.40;8.40;;;8.70;99.90;;;;;;5048176;28;20434;-72
2021/12/15 19:46:20;;;;;;;11.77;8.40;;;8.70;99.90;;;;;;5048064;28;20786;-71
2021/12/15 19:48:47;;;;;;;11.30;7.80;;;8.60;99.90;;;;;;5047098;28;20713;-71
2021/12/15 19:51:14;;;;;;;14.87;8.30;;;8.50;99.90;;;;;;5046032;28;20746;-71
2021/12/15 19:53:40;;;;;;;12.27;7.57;;;8.50;99.90;;;;;;5046961;28;20415;-71
2021/12/15 19:56:09;;;;;;;11.17;7.90;;;8.50;99.90;;;;;;5046496;28;20466;-71
2021/12/15 19:58:37;;;;;;;15.77;9.17;;;8.60;99.90;;;;;;5056974;28;20659;-71
2021/12/15 20:01:19;;;;;;;12.10;8.73;;;8.60;99.90;;;;;;5047518;28;20759;-72
2021/12/15 20:03:45;;;;;;;13.70;9.03;;;8.60;99.90;;;;;;5028154;28;20412;-70
2021/12/15 20:06:11;;;;;;;12.43;8.00;;;8.60;99.90;;;;;;5047089;28;20420;-71
2021/12/15 20:08:37;;;;;;;13.00;8.17;;;8.50;99.90;;;;;;5045878;28;20412;-71
2021/12/15 20:11:08;;;;;;;15.73;10.20;;;8.60;99.90;;;;;;5047174;28;21059;-71
2021/12/15 20:13:35;;;;;;;11.70;8.13;;;8.50;99.90;;;;;;5049410;28;20825;-71
2021/12/15 20:16:01;;;;;;;22.87;15.33;;;8.60;99.90;;;;;;5048189;28;20467;-71
2021/12/15 20:18:33;;;;;;;17.73;12.13;;;8.60;99.90;;;;;;5047820;28;20410;-71
2021/12/15 20:20:59;;;;;;;11.67;8.80;;;8.60;99.90;;;;;;5047275;28;20435;-72
2021/12/15 20:23:26;;;;;;;12.60;8.30;;;8.60;99.90;;;;;;5046078;28;20407;-71
2021/12/15 20:25:56;;;;;;;15.87;9.87;;;8.50;99.90;;;;;;5043555;28;20482;-71
2021/12/15 20:28:22;;;;;;;13.27;9.60;;;8.50;99.90;;;;;;5053759;28;20479;-71
2021/12/15 20:30:50;;;;;;;13.10;9.80;;;8.60;99.90;;;;;;5051479;28;20848;-71
2021/12/15 20:33:19;;;;;;;13.30;9.60;;;8.60;99.90;;;;;;5047569;28;20423;-71
2021/12/15 20:35:46;;;;;;;16.33;11.03;;;8.60;99.90;;;;;;5044744;28;20467;-71
2021/12/15 20:38:12;;;;;;;18.37;11.90;;;8.50;99.90;;;;;;5047297;28;20509;-71
2021/12/15 20:40:41;;;;;;;16.10;11.13;;;8.60;99.90;;;;;;5047549;28;20440;-73
2021/12/15 20:43:09;;;;;;;17.53;11.93;;;8.70;99.90;;;;;;5045503;28;20885;-70
2021/12/15 20:45:37;;;;;;;17.03;12.00;;;8.60;99.90;;;;;;5049784;28;20439;-72
2021/12/15 20:48:04;;;;;;;20.00;12.60;;;8.60;99.90;;;;;;5051229;28;20446;-71
2021/12/15 20:50:31;;;;;;;19.20;12.80;;;8.60;99.90;;;;;;5050609;28;20542;-71
2021/12/15 20:52:57;;;;;;;15.77;11.27;;;8.60;99.90;;;;;;5050211;28;20790;-71
2021/12/15 20:55:23;;;;;;;15.40;10.70;;;8.60;99.90;;;;;;5050434;28;20455;-73
2021/12/15 20:57:49;;;;;;;15.30;10.80;;;8.70;99.90;;;;;;5055483;28;20418;-71
2021/12/15 21:00:20;;;;;;;18.93;11.27;;;8.70;99.90;;;;;;5068938;28;20442;-71
2021/12/15 21:02:46;;;;;;;15.53;10.53;;;8.70;99.90;;;;;;5070047;28;20548;-71
2021/12/15 21:05:17;;;;;;;16.13;11.20;;;8.60;99.90;;;;;;5051676;28;20498;-71
2021/12/15 21:07:43;;;;;;;12.77;9.37;;;8.60;99.90;;;;;;5050732;28;20173;-71
2021/12/15 21:10:17;;;;;;;14.90;9.23;;;8.60;99.90;;;;;;5050323;28;20439;-71
2021/12/15 21:12:43;;;;;;;13.50;9.20;;;8.60;99.90;;;;;;5050115;28;20753;-71
2021/12/15 21:15:12;;;;;;;12.63;8.80;;;8.60;99.90;;;;;;5049613;28;20447;-71
2021/12/15 21:17:38;;;;;;;16.20;8.37;;;8.50;99.90;;;;;;5046799;28;20185;-72
2021/12/15 21:20:10;;;;;;;13.60;7.90;;;8.50;99.90;;;;;;5049381;28;20451;-71
2021/12/15 21:22:36;;;;;;;13.23;9.40;;;8.50;99.90;;;;;;5049661;28;20662;-71
2021/12/15 21:25:05;;;;;;;15.00;10.13;;;8.50;99.90;;;;;;5049536;28;20407;-71
2021/12/15 21:27:32;;;;;;;12.93;9.10;;;8.40;99.90;;;;;;5057494;28;20741;-71
2021/12/15 21:30:05;;;;;;;15.17;9.90;;;8.40;99.90;;;;;;5059124;28;20470;-72
2021/12/15 21:32:32;;;;;;;14.03;9.90;;;8.40;99.90;;;;;;5049669;28;20423;-71
2021/12/15 21:34:58;;;;;;;14.70;9.13;;;8.40;99.90;;;;;;5048989;28;20538;-71
2021/12/15 21:37:24;;;;;;;13.03;9.47;;;8.30;99.90;;;;;;5049401;28;20913;-71
2021/12/15 21:39:50;;;;;;;12.50;9.20;;;8.40;99.90;;;;;;5049634;28;20436;-72
2021/12/15 21:42:16;;;;;;;13.80;10.30;;;8.40;99.90;;;;;;5050789;28;20403;-73
2021/12/15 21:44:43;;;;;;;13.00;9.37;;;8.50;99.90;;;;;;5049488;28;20631;-72
2021/12/15 21:47:09;;;;;;;10.60;8.50;;;8.50;99.90;;;;;;5049845;28;20431;-71
2021/12/15 21:49:35;;;;;;;10.53;8.50;;;8.40;99.90;;;;;;5048743;28;20440;-71
2021/12/15 21:52:02;;;;;;;12.80;8.70;;;8.50;99.90;;;;;;5047669;28;20414;-71
2021/12/15 21:54:30;;;;;;;14.57;8.50;;;8.40;99.90;;;;;;5048774;28;20515;-71
2021/12/15 21:56:56;;;;;;;13.40;9.80;;;8.40;99.90;;;;;;5053722;28;20464;-68
2021/12/15 21:59:22;;;;;;;14.50;9.43;;;8.40;99.90;;;;;;5059455;28;20422;-71
2021/12/15 22:01:49;;;;;;;13.63;8.23;;;8.40;99.90;;;;;;5065792;28;20220;-71
2021/12/15 22:04:15;;;;;;;12.20;8.23;;;8.30;99.90;;;;;;5049271;28;20408;-70
2021/12/15 22:06:42;;;;;;;11.50;8.10;;;8.30;99.90;;;;;;5048192;28;20419;-71
2021/12/15 22:09:11;;;;;;;12.97;8.87;;;8.20;99.90;;;;;;5049551;28;20906;-71
2021/12/15 22:11:37;;;;;;;12.97;8.17;;;8.20;99.90;;;;;;5049840;28;20764;-71
2021/12/15 22:14:04;;;;;;;13.33;9.70;;;8.20;99.90;;;;;;5048458;28;20517;-71
2021/12/15 22:16:30;;;;;;;12.47;9.00;;;8.10;99.90;;;;;;5047835;28;20483;-72
2021/12/15 22:19:01;;;;;;;16.40;9.30;;;8.10;99.90;;;;;;5049153;28;20503;-71
2021/12/15 22:21:31;;;;;;;14.40;9.20;;;8.10;99.90;;;;;;5049091;28;20185;-72
2021/12/15 22:24:10;;;;;;;12.30;8.80;;;8.10;99.90;;;;;;5047551;28;20486;-71
2021/12/15 22:26:38;;;;;;;13.87;9.27;;;8.10;99.90;;;;;;5051528;28;20458;-70
2021/12/15 22:29:07;;;;;;;11.20;8.60;;;;;;;;;;5058238;28;20774;-71
2021/12/15 22:31:36;;;;;;;15.57;9.20;;;8.10;99.90;;;;;;5047565;28;20422;-71
2021/12/15 22:34:03;;;;;;;12.70;9.03;;;8.10;99.90;;;;;;5049031;28;20490;-71
2021/12/15 22:36:29;;;;;;;13.17;8.93;;;8.10;99.90;;;;;;5047128;28;21020;-72
2021/12/15 22:38:54;;;;;;;12.43;8.70;;;8.10;99.90;;;;;;5048500;28;20523;-70